createdAt,value
2023-02-22T00:01:09.014Z,11.40
2023-02-22T00:03:54.904Z,11.50
2023-02-22T00:06:43.110Z,11.20
2023-02-22T00:09:30.392Z,11.10
2023-02-22T00:12:16.229Z,11.00
2023-02-22T00:15:01.939Z,10.80
2023-02-22T00:17:49.364Z,11.10
2023-02-22T00:20:35.111Z,11.00
2023-02-22T00:23:22.681Z,11.10
2023-02-22T00:26:09.886Z,11.10
2023-02-22T00:28:56.369Z,11.10
2023-02-22T00:31:43.412Z,10.90
2023-02-22T00:34:32.332Z,10.90
2023-02-22T00:37:18.342Z,10.50
2023-02-22T00:40:08.419Z,10.60
2023-02-22T00:42:54.283Z,10.90
2023-02-22T00:45:39.636Z,11.00
2023-02-22T00:48:26.208Z,11.40
2023-02-22T00:51:13.467Z,11.50
2023-02-22T00:53:59.338Z,11.60
2023-02-22T00:56:45.487Z,11.00
2023-02-22T00:59:31.169Z,10.70
2023-02-22T01:02:17.438Z,10.20
2023-02-22T01:05:03.181Z,10.30
2023-02-22T01:07:50.716Z,10.40
2023-02-22T01:10:37.892Z,10.70
2023-02-22T01:13:24.516Z,10.40
2023-02-22T01:16:11.247Z,10.60
2023-02-22T01:18:56.911Z,10.50
2023-02-22T01:21:43.296Z,10.40
2023-02-22T01:24:30.224Z,10.50
2023-02-22T01:27:17.362Z,10.50
2023-02-22T01:30:08.604Z,10.30
2023-02-22T01:32:55.013Z,10.30
2023-02-22T01:35:41.541Z,10.10
2023-02-22T01:38:27.640Z,10.10
2023-02-22T01:41:18.386Z,10.60
2023-02-22T01:44:20.038Z,10.70
2023-02-22T01:47:06.513Z,10.70
2023-02-22T01:49:52.423Z,10.60
2023-02-22T01:52:38.263Z,10.50
2023-02-22T01:55:24.952Z,10.80
2023-02-22T01:58:13.207Z,10.50
2023-02-22T02:01:01.202Z,10.70
2023-02-22T02:03:49.197Z,10.50
2023-02-22T02:06:37.172Z,10.20
2023-02-22T02:09:30.245Z,10.00
2023-02-22T02:12:19.608Z,10.20
2023-02-22T02:15:22.442Z,10.30
2023-02-22T02:18:11.735Z,10.10
2023-02-22T02:21:42.072Z,10.20
2023-02-22T02:24:51.584Z,10.20
2023-02-22T02:27:57.220Z,10.30
2023-02-22T02:31:21.760Z,10.10
2023-02-22T02:34:20.351Z,9.80
2023-02-22T02:37:12.311Z,9.60
2023-02-22T02:40:04.904Z,9.90
2023-02-22T02:42:57.982Z,10.10
2023-02-22T02:45:49.625Z,10.40
2023-02-22T02:48:37.224Z,10.50
2023-02-22T02:51:28.520Z,10.50
2023-02-22T02:54:15.249Z,10.10
2023-02-22T02:57:03.459Z,10.30
2023-02-22T02:59:48.988Z,10.00
2023-02-22T03:02:48.855Z,10.00
2023-02-22T03:05:57.056Z,10.30
2023-02-22T03:08:50.445Z,10.60
2023-02-22T03:11:48.413Z,10.90
2023-02-22T03:14:41.353Z,10.70
2023-02-22T03:17:41.346Z,10.70
2023-02-22T03:20:31.835Z,10.40
2023-02-22T03:23:25.386Z,10.50
2023-02-22T03:26:19.668Z,10.50
2023-02-22T03:29:08.251Z,10.30
2023-02-22T03:32:01.351Z,10.40
2023-02-22T03:34:57.004Z,10.50
2023-02-22T03:37:50.545Z,10.60
2023-02-22T03:40:43.509Z,10.30
2023-02-22T03:43:36.746Z,10.20
2023-02-22T03:46:26.290Z,10.30
2023-02-22T03:49:17.909Z,10.00
2023-02-22T03:52:04.888Z,10.00
2023-02-22T03:54:55.450Z,9.80
2023-02-22T03:57:47.066Z,10.00
2023-02-22T04:00:35.552Z,10.10
2023-02-22T04:03:22.370Z,9.70
2023-02-22T04:06:09.031Z,9.60
2023-02-22T04:08:55.029Z,9.40
2023-02-22T04:11:41.061Z,9.40
2023-02-22T04:14:29.302Z,9.60
2023-02-22T04:17:17.783Z,9.80
2023-02-22T04:20:03.914Z,9.40
2023-02-22T04:23:01.171Z,9.00
2023-02-22T04:25:47.766Z,8.90
2023-02-22T04:28:35.794Z,9.30
2023-02-22T04:31:28.802Z,9.50
2023-02-22T04:34:19.105Z,8.90
2023-02-22T04:37:05.189Z,8.80
2023-02-22T04:39:51.782Z,8.80
2023-02-22T04:42:38.406Z,9.20
2023-02-22T04:45:24.946Z,9.20
2023-02-22T04:48:10.759Z,9.20
2023-02-22T04:50:58.112Z,9.40
2023-02-22T04:53:44.068Z,9.60
2023-02-22T04:56:29.721Z,9.80
2023-02-22T04:59:15.511Z,9.80
2023-02-22T05:02:04.161Z,9.60
2023-02-22T05:04:50.554Z,9.70
2023-02-22T05:07:37.846Z,9.10
2023-02-22T05:10:24.782Z,8.80
2023-02-22T05:13:10.758Z,9.00
2023-02-22T05:15:56.525Z,8.90
2023-02-22T05:18:42.728Z,8.90
2023-02-22T05:21:28.375Z,8.70
2023-02-22T05:24:15.558Z,8.60
2023-02-22T05:27:01.435Z,8.10
2023-02-22T05:29:47.295Z,8.40
2023-02-22T05:32:33.022Z,8.20
2023-02-22T05:35:22.581Z,8.50
2023-02-22T05:38:10.257Z,8.50
2023-02-22T05:40:57.438Z,8.40
2023-02-22T05:43:43.016Z,8.70
2023-02-22T05:46:28.778Z,8.80
2023-02-22T05:49:14.675Z,8.40
2023-02-22T05:52:00.581Z,8.10
2023-02-22T05:54:46.014Z,8.10
2023-02-22T05:57:33.664Z,8.00
2023-02-22T06:00:23.219Z,7.80
2023-02-22T06:03:10.978Z,7.80
2023-02-22T06:05:58.900Z,8.40
2023-02-22T06:08:44.781Z,8.60
2023-02-22T06:11:30.678Z,8.50
2023-02-22T06:14:17.869Z,8.10
2023-02-22T06:17:05.350Z,8.20
2023-02-22T06:19:51.097Z,8.30
2023-02-22T06:22:36.983Z,8.40
2023-02-22T06:25:26.641Z,8.40
2023-02-22T06:28:12.652Z,8.10
2023-02-22T06:30:59.961Z,8.10
2023-02-22T06:33:45.863Z,8.30
2023-02-22T06:36:31.800Z,8.50
2023-02-22T06:39:19.006Z,8.80
2023-02-22T06:42:04.986Z,8.60
2023-02-22T06:44:51.792Z,8.40
2023-02-22T06:47:42.285Z,8.70
2023-02-22T06:50:30.287Z,8.50
2023-02-22T06:53:15.824Z,8.20
2023-02-22T06:56:02.180Z,8.20
2023-02-22T06:58:49.409Z,8.40
2023-02-22T07:01:35.721Z,8.50
2023-02-22T07:04:22.697Z,8.50
2023-02-22T07:07:08.609Z,8.60
2023-02-22T07:09:54.308Z,8.30
2023-02-22T07:12:39.965Z,8.10
2023-02-22T07:15:28.187Z,8.40
2023-02-22T07:18:14.164Z,8.20
2023-02-22T07:21:01.261Z,8.50
2023-02-22T07:23:52.221Z,8.60
2023-02-22T07:26:40.570Z,8.40
2023-02-22T07:29:26.569Z,8.50
2023-02-22T07:32:12.241Z,8.60
2023-02-22T07:34:58.623Z,8.50
2023-02-22T07:37:45.821Z,8.40
2023-02-22T07:40:31.973Z,8.40
2023-02-22T07:43:19.765Z,8.40
2023-02-22T07:46:05.817Z,8.60
2023-02-22T07:48:51.426Z,8.80
2023-02-22T07:51:36.989Z,8.80
2023-02-22T07:54:24.354Z,8.60
2023-02-22T07:57:09.997Z,8.50
2023-02-22T07:59:55.873Z,8.50
2023-02-22T08:02:41.540Z,8.70
2023-02-22T08:05:29.180Z,8.90
2023-02-22T08:08:18.712Z,8.80
2023-02-22T08:11:06.772Z,8.50
2023-02-22T08:13:52.518Z,8.90
2023-02-22T08:16:38.317Z,8.90
2023-02-22T08:19:24.060Z,9.10
2023-02-22T08:22:09.924Z,9.00
2023-02-22T08:24:55.821Z,9.00
2023-02-22T08:27:43.783Z,9.10
2023-02-22T08:30:31.153Z,9.10
2023-02-22T08:33:19.691Z,9.00
2023-02-22T08:36:06.359Z,9.20
2023-02-22T08:38:52.080Z,9.10
2023-02-22T08:41:37.885Z,9.60
2023-02-22T08:44:25.321Z,9.70
2023-02-22T08:47:11.290Z,9.80
2023-02-22T08:49:56.762Z,10.10
2023-02-22T08:52:42.141Z,10.40
2023-02-22T08:55:32.101Z,10.70
2023-02-22T08:58:17.796Z,11.00
2023-02-22T09:01:05.182Z,11.40
2023-02-22T09:03:51.752Z,11.20
2023-02-22T09:06:39.988Z,11.20
2023-02-22T09:09:26.014Z,11.10
2023-02-22T09:12:12.136Z,11.10
2023-02-22T09:14:58.179Z,10.90
2023-02-22T09:17:45.560Z,11.10
2023-02-22T09:20:31.670Z,10.80
2023-02-22T09:23:17.449Z,10.70
2023-02-22T09:26:03.699Z,10.70
2023-02-22T09:28:49.523Z,10.60
2023-02-22T09:31:36.631Z,11.10
2023-02-22T09:34:29.552Z,11.50
2023-02-22T09:37:15.729Z,11.70
2023-02-22T09:40:01.378Z,11.90
2023-02-22T09:42:52.580Z,12.00
2023-02-22T09:45:44.970Z,12.20
2023-02-22T09:48:33.829Z,12.00
2023-02-22T09:51:21.756Z,11.90
2023-02-22T09:54:15.164Z,12.10
2023-02-22T09:57:04.446Z,12.20
2023-02-22T10:00:01.044Z,12.50
2023-02-22T10:02:52.528Z,12.60
2023-02-22T10:05:41.926Z,12.60
2023-02-22T10:08:31.627Z,12.60
2023-02-22T10:11:28.468Z,12.80
2023-02-22T10:14:34.768Z,13.00
2023-02-22T10:17:30.448Z,12.80
2023-02-22T10:20:30.847Z,13.10
2023-02-22T10:23:23.941Z,13.50
2023-02-22T10:26:17.202Z,13.50
2023-02-22T10:29:10.706Z,13.30
2023-02-22T10:31:59.963Z,13.20
2023-02-22T10:34:48.546Z,13.30
2023-02-22T10:37:35.426Z,13.80
2023-02-22T10:40:31.952Z,13.60
2023-02-22T10:43:19.902Z,13.60
2023-02-22T10:46:08.104Z,14.30
2023-02-22T10:48:58.266Z,14.50
2023-02-22T10:51:44.128Z,14.80
2023-02-22T10:54:33.598Z,15.50
2023-02-22T10:57:23.026Z,15.90
2023-02-22T11:00:20.123Z,16.00
2023-02-22T11:03:17.164Z,15.60
2023-02-22T11:06:19.932Z,15.10
2023-02-22T11:09:10.333Z,15.30
2023-02-22T11:12:09.511Z,15.20
2023-02-22T11:14:55.448Z,15.30
2023-02-22T11:17:43.489Z,16.10
2023-02-22T11:20:34.883Z,16.50
2023-02-22T11:23:23.547Z,16.50
2023-02-22T11:26:14.287Z,16.90
2023-02-22T11:29:01.599Z,16.60
2023-02-22T11:31:49.389Z,16.90
2023-02-22T11:34:38.972Z,17.20
2023-02-22T11:37:32.390Z,16.50
2023-02-22T11:40:22.282Z,16.20
2023-02-22T11:43:12.201Z,16.30
2023-02-22T11:46:03.584Z,16.40
2023-02-22T11:48:58.301Z,16.30
2023-02-22T11:51:53.661Z,16.20
2023-02-22T11:55:12.491Z,16.00
2023-02-22T11:58:08.459Z,16.30
2023-02-22T12:01:02.285Z,16.20
2023-02-22T12:04:26.280Z,16.50
2023-02-22T12:07:38.380Z,16.70
2023-02-22T12:10:41.361Z,16.70
2023-02-22T12:13:40.081Z,16.80
2023-02-22T12:16:38.018Z,16.90
2023-02-22T12:19:32.543Z,17.10
2023-02-22T12:22:24.875Z,17.30
2023-02-22T12:25:21.577Z,17.30
2023-02-22T12:28:24.634Z,16.70
2023-02-22T12:31:19.082Z,16.40
2023-02-22T12:34:09.850Z,16.50
2023-02-22T12:37:01.576Z,16.80
2023-02-22T12:39:56.509Z,16.70
2023-02-22T12:42:53.713Z,16.50
2023-02-22T12:45:45.171Z,16.20
2023-02-22T12:48:35.348Z,16.60
2023-02-22T12:51:30.029Z,16.70
2023-02-22T12:54:21.304Z,16.90
2023-02-22T12:57:16.984Z,16.80
2023-02-22T13:00:10.468Z,16.80
2023-02-22T13:03:01.124Z,16.60
2023-02-22T13:05:51.523Z,16.50
2023-02-22T13:08:45.826Z,16.50
2023-02-22T13:11:37.586Z,16.70
2023-02-22T13:14:38.786Z,16.60
2023-02-22T13:17:34.586Z,16.80
2023-02-22T13:20:27.323Z,17.00
2023-02-22T13:23:24.139Z,16.80
2023-02-22T13:26:15.323Z,16.20
2023-02-22T13:29:05.710Z,16.60
2023-02-22T13:32:06.422Z,16.50
2023-02-22T13:35:10.849Z,16.40
2023-02-22T13:38:22.027Z,16.10
2023-02-22T13:41:28.774Z,15.80
2023-02-22T13:44:44.462Z,16.20
2023-02-22T13:48:09.313Z,16.20
2023-02-22T13:51:13.809Z,15.90
2023-02-22T13:54:04.542Z,16.20
2023-02-22T13:56:52.180Z,16.30
2023-02-22T13:59:39.424Z,16.40
2023-02-22T14:03:01.128Z,16.40
2023-02-22T14:05:49.796Z,16.10
2023-02-22T14:08:45.888Z,16.20
2023-02-22T14:11:54.141Z,16.20
2023-02-22T14:15:28.744Z,16.30
2023-02-22T14:18:17.295Z,16.60
2023-02-22T14:21:07.538Z,16.80
2023-02-22T14:23:54.273Z,17.10
2023-02-22T14:26:41.366Z,16.80
2023-02-22T14:29:28.054Z,16.70
2023-02-22T14:32:17.564Z,17.00
2023-02-22T14:35:09.602Z,16.70
2023-02-22T14:38:01.932Z,16.80
2023-02-22T14:40:49.492Z,16.80
2023-02-22T14:43:38.020Z,16.70
2023-02-22T14:46:28.163Z,16.70
2023-02-22T14:49:19.710Z,16.40
2023-02-22T14:52:13.238Z,16.30
2023-02-22T14:55:05.852Z,16.00
2023-02-22T14:58:08.613Z,15.80
2023-02-22T15:00:56.824Z,15.80
2023-02-22T15:03:45.005Z,15.70
2023-02-22T15:06:35.268Z,15.70
2023-02-22T15:09:29.680Z,15.70
2023-02-22T15:12:24.492Z,15.80
2023-02-22T15:15:14.156Z,16.10
2023-02-22T15:18:00.171Z,16.00
2023-02-22T15:20:48.408Z,15.80
2023-02-22T15:23:43.395Z,16.00
2023-02-22T15:26:37.250Z,16.00
2023-02-22T15:29:25.016Z,16.10
2023-02-22T15:32:29.274Z,16.10
2023-02-22T15:35:18.759Z,16.00
2023-02-22T15:38:06.669Z,15.80
2023-02-22T15:41:08.345Z,15.70
2023-02-22T15:44:01.790Z,15.90
2023-02-22T15:46:49.672Z,16.00
2023-02-22T15:49:37.916Z,15.80
2023-02-22T15:52:26.496Z,15.60
2023-02-22T15:55:14.603Z,15.40
2023-02-22T15:58:08.844Z,15.30
2023-02-22T16:01:01.756Z,15.20
2023-02-22T16:03:49.610Z,15.30
2023-02-22T16:06:37.749Z,15.20
2023-02-22T16:09:26.132Z,15.20
2023-02-22T16:12:26.294Z,15.10
2023-02-22T16:15:17.593Z,15.10
2023-02-22T16:18:26.312Z,14.90
2023-02-22T16:21:13.971Z,14.80
2023-02-22T16:24:13.794Z,14.70
2023-02-22T16:27:16.523Z,14.50
2023-02-22T16:30:10.027Z,14.30
2023-02-22T16:33:05.561Z,14.20
2023-02-22T16:35:53.918Z,14.20
2023-02-22T16:38:40.258Z,14.20
2023-02-22T16:41:26.137Z,14.10
2023-02-22T16:44:13.110Z,14.10
2023-02-22T16:47:00.545Z,13.80
2023-02-22T16:49:52.751Z,13.90
2023-02-22T16:52:40.184Z,14.10
2023-02-22T16:55:26.915Z,14.10
2023-02-22T16:58:13.738Z,14.30
2023-02-22T17:00:59.372Z,14.40
2023-02-22T17:03:45.893Z,14.10
2023-02-22T17:06:33.331Z,14.30
2023-02-22T17:09:22.231Z,14.30
2023-02-22T17:12:09.773Z,14.30
2023-02-22T17:14:55.780Z,14.00
2023-02-22T17:17:41.446Z,14.10
2023-02-22T17:20:30.140Z,14.30
2023-02-22T17:23:18.059Z,14.40
2023-02-22T17:26:04.225Z,14.20
2023-02-22T17:28:49.868Z,14.30
2023-02-22T17:31:35.959Z,14.50
2023-02-22T17:34:21.800Z,14.50
2023-02-22T17:37:07.790Z,14.60
2023-02-22T17:39:55.841Z,14.50
2023-02-22T17:42:42.334Z,14.50
2023-02-22T17:45:28.872Z,14.70
2023-02-22T17:48:16.438Z,14.30
2023-02-22T17:51:06.784Z,14.10
2023-02-22T17:53:53.322Z,13.90
2023-02-22T17:56:42.491Z,13.60
2023-02-22T17:59:28.324Z,13.80
2023-02-22T18:02:14.022Z,13.80
2023-02-22T18:05:01.134Z,13.80
2023-02-22T18:07:47.121Z,13.70
2023-02-22T18:10:32.961Z,13.80
2023-02-22T18:13:20.698Z,13.90
2023-02-22T18:16:08.058Z,13.80
2023-02-22T18:18:55.579Z,13.90
2023-02-22T18:21:41.242Z,13.80
2023-02-22T18:24:27.445Z,13.70
2023-02-22T18:27:14.793Z,13.60
2023-02-22T18:30:01.933Z,13.70
2023-02-22T18:32:48.000Z,13.70
2023-02-22T18:35:33.916Z,13.50
2023-02-22T18:38:23.424Z,13.70
2023-02-22T18:41:10.952Z,13.70
2023-02-22T18:44:00.612Z,13.90
2023-02-22T18:46:47.841Z,13.90
2023-02-22T18:49:33.682Z,13.50
2023-02-22T18:52:19.697Z,13.50
2023-02-22T18:55:08.701Z,13.50
2023-02-22T18:57:55.724Z,13.80
2023-02-22T19:00:41.563Z,13.80
2023-02-22T19:03:29.851Z,13.90
2023-02-22T19:06:18.024Z,14.00
2023-02-22T19:09:07.857Z,14.00
2023-02-22T19:11:54.550Z,13.80
2023-02-22T19:14:42.276Z,13.50
2023-02-22T19:17:29.477Z,13.70
2023-02-22T19:20:17.084Z,13.60
2023-02-22T19:23:03.212Z,13.80
2023-02-22T19:25:48.709Z,13.80
2023-02-22T19:28:34.382Z,13.80
2023-02-22T19:31:26.228Z,13.70
2023-02-22T19:34:14.947Z,13.80
2023-02-22T19:37:02.255Z,13.80
2023-02-22T19:39:47.933Z,14.10
2023-02-22T19:42:33.613Z,14.00
2023-02-22T19:45:22.095Z,14.10
2023-02-22T19:48:08.559Z,14.00
2023-02-22T19:50:57.793Z,14.20
2023-02-22T19:54:54.740Z,14.00
2023-02-22T19:57:46.516Z,14.10
2023-02-22T20:00:35.520Z,14.20
2023-02-22T20:03:23.527Z,14.10
2023-02-22T20:06:09.900Z,13.90
2023-02-22T20:08:56.969Z,14.00
2023-02-22T20:11:43.320Z,14.10
2023-02-22T20:14:30.918Z,14.10
2023-02-22T20:17:16.666Z,14.30
2023-02-22T20:20:02.525Z,14.40
2023-02-22T20:22:48.713Z,14.40
2023-02-22T20:25:35.446Z,14.10
2023-02-22T20:28:21.417Z,14.20
2023-02-22T20:31:11.293Z,14.10
2023-02-22T20:33:59.231Z,14.00
2023-02-22T20:36:45.187Z,14.00
2023-02-22T20:39:31.589Z,14.10
2023-02-22T20:42:17.796Z,14.10
2023-02-22T20:45:06.051Z,14.00
2023-02-22T20:47:54.546Z,14.10
2023-02-22T20:50:40.518Z,14.10
2023-02-22T20:53:26.461Z,14.00
2023-02-22T20:56:13.654Z,13.90
2023-02-22T20:59:01.419Z,13.90
2023-02-22T21:01:49.403Z,13.60
2023-02-22T21:04:36.490Z,13.60
2023-02-22T21:07:22.503Z,13.70
2023-02-22T21:10:08.659Z,13.60
2023-02-22T21:12:56.918Z,13.60
2023-02-22T21:15:47.135Z,13.50
2023-02-22T21:18:33.162Z,13.50
2023-02-22T21:21:20.538Z,13.60
2023-02-22T21:24:07.283Z,13.60
2023-02-22T21:26:53.086Z,13.40
2023-02-22T21:29:39.072Z,13.40
2023-02-22T21:32:24.933Z,13.50
2023-02-22T21:35:10.925Z,13.50
2023-02-22T21:37:58.363Z,13.50
2023-02-22T21:40:46.160Z,13.50
2023-02-22T21:43:32.454Z,13.60
2023-02-22T21:46:18.649Z,13.60
2023-02-22T21:49:04.637Z,13.40
2023-02-22T21:51:51.822Z,13.40
2023-02-22T21:54:39.432Z,13.40
2023-02-22T21:57:26.144Z,13.50
2023-02-22T22:00:17.440Z,13.50
2023-02-22T22:03:20.205Z,13.60
2023-02-22T22:06:09.709Z,13.40
2023-02-22T22:08:56.364Z,13.40
2023-02-22T22:11:43.284Z,13.50
2023-02-22T22:14:28.811Z,13.70
2023-02-22T22:17:14.627Z,13.50
2023-02-22T22:20:00.095Z,13.60
2023-02-22T22:22:46.278Z,13.40
2023-02-22T22:25:32.867Z,13.60
2023-02-22T22:28:20.694Z,13.60
2023-02-22T22:31:07.330Z,13.60
2023-02-22T22:33:54.517Z,13.50
2023-02-22T22:36:40.303Z,13.20
2023-02-22T22:39:26.819Z,13.20
2023-02-22T22:42:13.392Z,13.20
2023-02-22T22:45:00.548Z,13.30
2023-02-22T22:47:46.807Z,13.40
2023-02-22T22:50:34.028Z,13.30
2023-02-22T22:53:20.007Z,13.40
2023-02-22T22:56:08.609Z,13.40
2023-02-22T22:58:56.128Z,13.30
2023-02-22T23:01:47.080Z,13.30
2023-02-22T23:04:33.098Z,13.50
2023-02-22T23:07:18.791Z,13.50
2023-02-22T23:10:06.444Z,13.60
2023-02-22T23:12:53.744Z,13.50
2023-02-22T23:15:42.870Z,13.50
2023-02-22T23:18:33.917Z,13.60
2023-02-22T23:21:23.721Z,13.50
2023-02-22T23:24:10.813Z,13.50
2023-02-22T23:27:00.268Z,13.50
2023-02-22T23:29:46.577Z,13.60
2023-02-22T23:32:35.001Z,13.50
2023-02-22T23:35:22.014Z,13.50
2023-02-22T23:38:09.075Z,13.70
2023-02-22T23:41:00.339Z,13.70
2023-02-22T23:43:46.306Z,13.80
2023-02-22T23:46:32.904Z,13.70
2023-02-22T23:49:20.342Z,13.70
2023-02-22T23:52:08.476Z,13.80
2023-02-22T23:54:54.237Z,13.80
2023-02-22T23:57:43.138Z,13.70
